createdAt,value
2022-09-09T00:01:10.235Z,21.94
2022-09-09T00:03:46.318Z,21.97
2022-09-09T00:06:13.916Z,22.01
2022-09-09T00:08:47.538Z,21.91
2022-09-09T00:11:18.197Z,21.95
2022-09-09T00:13:50.022Z,21.98
2022-09-09T00:16:23.584Z,21.89
2022-09-09T00:19:02.944Z,22.00
2022-09-09T00:21:33.439Z,22.00
2022-09-09T00:24:01.756Z,21.99
2022-09-09T00:26:36.742Z,22.00
2022-09-09T00:29:13.347Z,22.00
2022-09-09T00:31:40.683Z,21.98
2022-09-09T00:34:17.265Z,21.92
2022-09-09T00:36:47.153Z,21.84
2022-09-09T00:39:20.193Z,21.83
2022-09-09T00:41:53.464Z,21.87
2022-09-09T00:44:38.203Z,21.99
2022-09-09T00:47:21.525Z,22.09
2022-09-09T00:49:52.168Z,22.18
2022-09-09T00:52:19.494Z,22.26
2022-09-09T00:54:46.776Z,22.18
2022-09-09T00:57:24.826Z,22.25
2022-09-09T00:59:53.959Z,22.34
2022-09-09T01:02:27.692Z,22.43
2022-09-09T01:04:55.676Z,22.38
2022-09-09T01:07:23.064Z,22.35
2022-09-09T01:09:55.840Z,22.37
2022-09-09T01:12:29.403Z,22.47
2022-09-09T01:15:04.464Z,22.52
2022-09-09T01:17:39.960Z,22.51
2022-09-09T01:20:10.805Z,22.57
2022-09-09T01:22:52.788Z,22.54
2022-09-09T01:25:38.744Z,22.42
2022-09-09T01:28:13.086Z,22.38
2022-09-09T01:30:42.036Z,22.43
2022-09-09T01:33:17.307Z,22.45
2022-09-09T01:36:01.554Z,22.57
2022-09-09T01:38:33.861Z,22.51
2022-09-09T01:41:01.821Z,22.46
2022-09-09T01:43:39.286Z,22.53
2022-09-09T01:46:06.839Z,22.53
2022-09-09T01:48:35.983Z,22.40
2022-09-09T01:51:06.571Z,22.36
2022-09-09T01:53:33.901Z,22.33
2022-09-09T01:56:09.978Z,22.33
2022-09-09T01:59:12.734Z,22.27
2022-09-09T02:01:48.053Z,22.21
2022-09-09T02:04:19.012Z,22.23
2022-09-09T02:06:48.619Z,22.39
2022-09-09T02:09:26.028Z,22.27
2022-09-09T02:12:00.572Z,22.28
2022-09-09T02:14:40.424Z,22.07
2022-09-09T02:17:12.443Z,22.04
2022-09-09T02:19:57.901Z,21.96
2022-09-09T02:22:36.852Z,21.82
2022-09-09T02:25:06.465Z,21.76
2022-09-09T02:27:34.346Z,21.61
2022-09-09T02:30:03.194Z,21.48
2022-09-09T02:32:40.664Z,21.47
2022-09-09T02:35:12.693Z,21.56
2022-09-09T02:37:42.712Z,21.64
2022-09-09T02:40:12.141Z,21.64
2022-09-09T02:42:44.299Z,21.58
2022-09-09T02:45:13.141Z,21.52
2022-09-09T02:47:44.436Z,21.33
2022-09-09T02:50:18.657Z,21.24
2022-09-09T02:52:51.693Z,21.32
2022-09-09T02:55:25.256Z,21.42
2022-09-09T02:57:57.133Z,21.41
2022-09-09T03:00:25.652Z,21.35
2022-09-09T03:02:54.441Z,21.27
2022-09-09T03:05:22.152Z,21.23
2022-09-09T03:07:50.730Z,21.15
2022-09-09T03:10:19.532Z,21.24
2022-09-09T03:12:46.772Z,21.13
2022-09-09T03:15:14.776Z,21.13
2022-09-09T03:17:42.286Z,21.16
2022-09-09T03:20:09.754Z,21.10
2022-09-09T03:22:38.549Z,21.14
2022-09-09T03:25:06.795Z,21.20
2022-09-09T03:27:36.335Z,21.26
2022-09-09T03:30:05.185Z,21.31
2022-09-09T03:32:32.477Z,21.31
2022-09-09T03:34:59.637Z,21.40
2022-09-09T03:37:27.131Z,21.45
2022-09-09T03:39:55.680Z,21.52
2022-09-09T03:42:23.840Z,21.56
2022-09-09T03:44:54.065Z,21.57
2022-09-09T03:47:24.549Z,21.61
2022-09-09T03:49:56.448Z,21.64
2022-09-09T03:52:26.031Z,21.66
2022-09-09T03:54:54.862Z,21.68
2022-09-09T03:57:22.717Z,21.75
2022-09-09T03:59:50.764Z,21.71
2022-09-09T04:02:17.977Z,21.68
2022-09-09T04:04:45.383Z,21.77
2022-09-09T04:07:12.948Z,21.70
2022-09-09T04:09:40.948Z,21.65
2022-09-09T04:12:08.208Z,21.59
2022-09-09T04:14:36.462Z,21.58
2022-09-09T04:17:07.281Z,21.49
2022-09-09T04:19:34.873Z,21.41
2022-09-09T04:22:02.894Z,21.34
2022-09-09T04:24:30.185Z,21.23
2022-09-09T04:26:58.424Z,21.31
2022-09-09T04:29:26.168Z,21.21
2022-09-09T04:31:54.354Z,21.09
2022-09-09T04:34:22.201Z,21.25
2022-09-09T04:36:49.778Z,21.16
2022-09-09T04:39:16.947Z,21.15
2022-09-09T04:41:45.031Z,21.07
2022-09-09T04:44:12.272Z,21.02
2022-09-09T04:46:39.858Z,21.06
2022-09-09T04:49:09.973Z,21.03
2022-09-09T04:51:39.986Z,20.99
2022-09-09T04:54:07.218Z,20.89
2022-09-09T04:56:34.534Z,20.80
2022-09-09T04:59:03.940Z,20.94
2022-09-09T05:01:39.342Z,20.96
2022-09-09T05:04:06.708Z,20.96
2022-09-09T05:06:35.068Z,20.98
2022-09-09T05:09:02.787Z,20.99
2022-09-09T05:11:33.398Z,21.02
2022-09-09T05:14:10.421Z,21.00
2022-09-09T05:16:37.720Z,20.94
2022-09-09T05:19:05.125Z,20.97
2022-09-09T05:21:44.874Z,21.02
2022-09-09T05:24:13.672Z,20.99
2022-09-09T05:26:41.436Z,20.97
2022-09-09T05:29:09.341Z,20.97
2022-09-09T05:31:36.851Z,20.89
2022-09-09T05:34:09.770Z,20.91
2022-09-09T05:36:37.000Z,20.85
2022-09-09T05:39:04.710Z,20.78
2022-09-09T05:41:33.962Z,20.81
2022-09-09T05:44:03.112Z,20.80
2022-09-09T05:46:34.389Z,20.77
2022-09-09T05:49:02.996Z,20.84
2022-09-09T05:51:32.700Z,20.88
2022-09-09T05:54:04.833Z,20.88
2022-09-09T05:56:35.117Z,20.78
2022-09-09T05:59:02.347Z,20.73
2022-09-09T06:01:31.634Z,20.77
2022-09-09T06:03:59.545Z,20.86
2022-09-09T06:06:27.811Z,20.98
2022-09-09T06:09:01.328Z,21.05
2022-09-09T06:11:37.023Z,20.89
2022-09-09T06:14:04.844Z,21.05
2022-09-09T06:16:36.212Z,21.17
2022-09-09T06:19:07.013Z,21.34
2022-09-09T06:21:37.987Z,21.39
2022-09-09T06:24:10.480Z,21.42
2022-09-09T06:26:39.457Z,21.49
2022-09-09T06:29:07.830Z,21.62
2022-09-09T06:31:37.871Z,21.80
2022-09-09T06:34:14.547Z,21.95
2022-09-09T06:36:47.206Z,22.08
2022-09-09T06:39:16.474Z,22.21
2022-09-09T06:41:44.210Z,22.42
2022-09-09T06:44:35.543Z,22.55
2022-09-09T06:47:04.556Z,22.59
2022-09-09T06:49:33.109Z,22.78
2022-09-09T06:52:01.493Z,22.92
2022-09-09T06:54:29.798Z,23.01
2022-09-09T06:56:57.150Z,23.09
2022-09-09T06:59:25.880Z,23.16
2022-09-09T07:01:56.554Z,23.28
2022-09-09T07:04:24.985Z,23.38
2022-09-09T07:06:53.630Z,23.40
2022-09-09T07:09:25.880Z,23.41
2022-09-09T07:11:54.745Z,23.43
2022-09-09T07:14:24.905Z,23.57
2022-09-09T07:17:04.363Z,23.65
2022-09-09T07:19:38.210Z,23.75
2022-09-09T07:22:07.358Z,23.80
2022-09-09T07:24:35.924Z,23.81
2022-09-09T07:27:04.305Z,23.80
2022-09-09T07:29:31.747Z,23.77
2022-09-09T07:31:59.974Z,23.87
2022-09-09T07:34:32.861Z,23.89
2022-09-09T07:37:00.301Z,23.97
2022-09-09T07:39:27.835Z,24.04
2022-09-09T07:41:56.011Z,24.06
2022-09-09T07:44:28.295Z,24.14
2022-09-09T07:47:04.030Z,24.22
2022-09-09T07:49:37.015Z,24.34
2022-09-09T07:52:08.783Z,24.37
2022-09-09T07:54:37.164Z,24.42
2022-09-09T07:57:06.688Z,24.45
2022-09-09T07:59:36.413Z,24.41
2022-09-09T08:02:05.094Z,24.47
2022-09-09T08:04:35.895Z,24.37
2022-09-09T08:07:04.451Z,24.38
2022-09-09T08:09:36.769Z,24.47
2022-09-09T08:12:11.827Z,24.64
2022-09-09T08:14:40.116Z,24.49
2022-09-09T08:17:07.572Z,24.76
2022-09-09T08:19:38.149Z,24.86
2022-09-09T08:22:10.836Z,25.03
2022-09-09T08:24:40.719Z,25.02
2022-09-09T08:27:08.963Z,25.07
2022-09-09T08:29:36.215Z,25.19
2022-09-09T08:32:04.067Z,25.36
2022-09-09T08:34:32.525Z,25.60
2022-09-09T08:37:03.490Z,25.72
2022-09-09T08:39:36.075Z,25.88
2022-09-09T08:42:24.179Z,26.09
2022-09-09T08:45:06.663Z,26.29
2022-09-09T08:47:50.417Z,26.36
2022-09-09T08:50:24.620Z,26.55
2022-09-09T08:52:55.832Z,26.32
2022-09-09T08:55:42.469Z,26.81
2022-09-09T08:58:23.371Z,27.55
2022-09-09T09:01:09.256Z,27.80
2022-09-09T09:03:42.572Z,28.36
2022-09-09T09:06:20.707Z,28.93
2022-09-09T09:09:01.211Z,29.50
2022-09-09T09:11:35.614Z,29.23
2022-09-09T09:14:05.382Z,29.81
2022-09-09T09:16:35.255Z,30.31
2022-09-09T09:19:05.432Z,29.98
2022-09-09T09:21:51.667Z,28.97
2022-09-09T09:24:24.582Z,28.51
2022-09-09T09:26:52.367Z,28.43
2022-09-09T09:29:22.769Z,28.05
2022-09-09T09:31:55.895Z,28.07
2022-09-09T09:34:25.419Z,27.86
2022-09-09T09:36:55.155Z,27.53
2022-09-09T09:42:18.908Z,27.23
2022-09-09T09:44:50.326Z,26.85
2022-09-09T09:47:22.034Z,26.75
2022-09-09T09:50:17.872Z,26.71
2022-09-09T09:52:54.356Z,26.88
2022-09-09T09:55:23.763Z,26.69
2022-09-09T09:57:51.485Z,25.93
2022-09-09T10:00:21.661Z,25.57
2022-09-09T10:02:57.431Z,24.18
2022-09-09T10:05:33.800Z,22.68
2022-09-09T10:08:17.608Z,21.31
2022-09-09T10:10:56.897Z,20.43
2022-09-09T10:13:33.195Z,20.22
2022-09-09T10:16:07.290Z,20.32
2022-09-09T10:18:34.717Z,20.36
2022-09-09T10:21:21.770Z,20.50
2022-09-09T10:23:49.077Z,20.80
2022-09-09T10:26:16.277Z,20.84
2022-09-09T10:28:59.774Z,20.93
2022-09-09T10:31:33.303Z,20.89
2022-09-09T10:34:12.994Z,20.98
2022-09-09T10:36:45.766Z,20.79
2022-09-09T10:39:18.951Z,20.71
2022-09-09T10:41:46.697Z,20.64
2022-09-09T10:44:14.783Z,20.61
2022-09-09T10:46:50.700Z,20.62
2022-09-09T10:49:23.254Z,20.75
2022-09-09T10:52:02.724Z,20.72
2022-09-09T10:54:39.743Z,20.83
2022-09-09T10:57:33.245Z,20.83
2022-09-09T11:00:04.132Z,20.82
2022-09-09T11:02:32.908Z,20.86
2022-09-09T11:05:11.820Z,20.89
2022-09-09T11:07:41.887Z,20.98
2022-09-09T11:10:18.044Z,21.02
2022-09-09T11:12:48.616Z,21.09
2022-09-09T11:15:29.699Z,21.14
2022-09-09T11:17:59.677Z,21.34
2022-09-09T11:20:29.818Z,21.51
2022-09-09T11:23:02.534Z,21.63
2022-09-09T11:25:38.156Z,21.83
2022-09-09T11:28:16.189Z,21.84
2022-09-09T11:31:02.091Z,21.95
2022-09-09T11:33:33.152Z,22.07
2022-09-09T11:36:07.989Z,22.31
2022-09-09T11:38:43.083Z,22.51
2022-09-09T11:41:11.135Z,22.56
2022-09-09T11:43:45.610Z,22.61
2022-09-09T11:46:14.151Z,22.52
2022-09-09T11:48:46.707Z,22.51
2022-09-09T11:51:26.583Z,22.60
2022-09-09T11:53:56.733Z,22.51
2022-09-09T11:56:28.507Z,22.57
2022-09-09T11:58:58.719Z,22.75
2022-09-09T12:01:29.250Z,22.92
2022-09-09T12:04:07.400Z,23.11
2022-09-09T12:06:43.426Z,23.23
2022-09-09T12:09:16.542Z,23.15
2022-09-09T12:11:43.725Z,23.22
2022-09-09T12:14:20.686Z,23.18
2022-09-09T12:16:51.110Z,23.18
2022-09-09T12:19:26.925Z,23.20
2022-09-09T12:22:13.996Z,23.40
2022-09-09T12:25:04.465Z,23.38
2022-09-09T12:27:38.142Z,23.52
2022-09-09T12:30:10.570Z,23.52
2022-09-09T12:32:39.030Z,23.57
2022-09-09T12:35:14.917Z,23.72
2022-09-09T12:37:46.255Z,23.74
2022-09-09T12:40:21.236Z,23.88
2022-09-09T12:42:48.558Z,23.89
2022-09-09T12:45:26.876Z,23.92
2022-09-09T12:47:56.940Z,23.96
2022-09-09T12:50:31.529Z,24.04
2022-09-09T12:53:00.695Z,24.09
2022-09-09T12:55:34.388Z,24.24
2022-09-09T12:58:23.971Z,24.21
2022-09-09T13:01:21.756Z,24.25
2022-09-09T13:03:49.214Z,24.26
2022-09-09T13:06:28.643Z,24.31
2022-09-09T13:08:57.123Z,24.30
2022-09-09T13:11:30.359Z,24.30
2022-09-09T13:13:58.497Z,24.38
2022-09-09T13:16:33.347Z,24.45
2022-09-09T13:19:09.422Z,24.45
2022-09-09T13:21:38.329Z,24.57
2022-09-09T13:24:08.648Z,24.55
2022-09-09T13:26:39.593Z,24.71
2022-09-09T13:29:24.771Z,24.70
2022-09-09T13:31:58.232Z,24.68
2022-09-09T13:34:32.727Z,24.69
2022-09-09T13:37:06.833Z,24.70
2022-09-09T13:39:38.347Z,24.73
2022-09-09T13:42:08.096Z,24.78
2022-09-09T13:44:37.854Z,24.78
2022-09-09T13:47:10.287Z,24.81
2022-09-09T13:49:38.129Z,24.88
2022-09-09T13:52:08.519Z,24.88
2022-09-09T13:54:36.419Z,25.07
2022-09-09T13:57:05.397Z,25.07
2022-09-09T14:00:04.171Z,24.99
2022-09-09T14:02:20.829Z,24.95
2022-09-09T14:04:51.734Z,24.97
2022-09-09T14:07:19.808Z,24.96
2022-09-09T14:09:50.890Z,24.97
2022-09-09T14:12:19.216Z,25.00
2022-09-09T14:14:46.540Z,25.02
2022-09-09T14:17:13.769Z,24.99
2022-09-09T14:19:40.964Z,24.97
2022-09-09T14:22:08.168Z,25.03
2022-09-09T14:24:35.521Z,25.08
2022-09-09T14:27:02.768Z,25.13
2022-09-09T14:29:29.982Z,25.14
2022-09-09T14:31:57.208Z,25.15
2022-09-09T14:34:24.332Z,25.18
2022-09-09T14:36:52.448Z,25.15
2022-09-09T14:39:19.597Z,25.16
2022-09-09T14:41:47.000Z,25.13
2022-09-09T14:44:14.285Z,25.17
2022-09-09T14:46:43.366Z,25.08
2022-09-09T14:49:13.860Z,25.06
2022-09-09T14:51:44.187Z,25.04
2022-09-09T14:54:12.942Z,25.09
2022-09-09T14:56:40.076Z,25.07
2022-09-09T14:59:07.195Z,25.09
2022-09-09T15:01:35.194Z,25.13
2022-09-09T15:04:04.710Z,25.25
2022-09-09T15:06:34.143Z,25.24
2022-09-09T15:09:01.732Z,25.29
2022-09-09T15:11:31.505Z,25.30
2022-09-09T15:13:59.249Z,25.25
2022-09-09T15:16:28.059Z,25.21
2022-09-09T15:18:56.843Z,25.22
2022-09-09T15:21:25.508Z,25.08
2022-09-09T15:26:54.916Z,24.95
2022-09-09T15:29:21.987Z,25.00
2022-09-09T15:31:49.151Z,24.99
2022-09-09T15:34:16.313Z,25.02
2022-09-09T15:36:44.385Z,25.02
2022-09-09T15:39:13.777Z,25.01
2022-09-09T15:41:41.460Z,25.02
2022-09-09T15:44:09.614Z,25.05
2022-09-09T15:46:38.518Z,25.09
2022-09-09T15:49:13.896Z,25.07
2022-09-09T15:51:45.275Z,25.06
2022-09-09T15:54:17.804Z,25.03
2022-09-09T15:56:46.241Z,25.01
2022-09-09T15:59:13.525Z,25.03
2022-09-09T16:01:40.757Z,25.02
2022-09-09T16:04:07.966Z,24.99
2022-09-09T16:06:35.213Z,24.98
2022-09-09T16:09:05.217Z,24.96
2022-09-09T16:11:33.571Z,24.92
2022-09-09T16:14:00.852Z,24.82
2022-09-09T16:16:28.661Z,24.80
2022-09-09T16:18:57.058Z,24.80
2022-09-09T16:21:25.182Z,24.78
2022-09-09T16:23:54.406Z,24.68
2022-09-09T16:26:21.526Z,24.69
2022-09-09T16:28:49.345Z,24.67
2022-09-09T16:31:19.157Z,24.61
2022-09-09T16:33:47.249Z,24.60
2022-09-09T16:36:20.037Z,24.51
2022-09-09T16:38:47.405Z,24.51
2022-09-09T16:41:15.218Z,24.49
2022-09-09T16:43:42.535Z,24.57
2022-09-09T16:46:14.879Z,24.58
2022-09-09T16:48:44.076Z,24.60
2022-09-09T16:51:15.717Z,24.55
2022-09-09T16:53:44.120Z,24.52
2022-09-09T16:56:12.969Z,24.37
2022-09-09T16:58:40.229Z,24.29
2022-09-09T17:01:07.373Z,24.25
2022-09-09T17:03:34.518Z,24.22
2022-09-09T17:06:03.361Z,24.15
2022-09-09T17:08:30.943Z,24.08
2022-09-09T17:10:58.660Z,24.11
2022-09-09T17:13:26.271Z,24.16
2022-09-09T17:15:53.574Z,24.15
2022-09-09T17:18:21.619Z,24.04
2022-09-09T17:20:48.745Z,24.05
2022-09-09T17:23:16.443Z,23.92
2022-09-09T17:25:44.242Z,23.82
2022-09-09T17:28:11.508Z,23.81
2022-09-09T17:30:39.141Z,23.79
2022-09-09T17:33:07.552Z,23.72
2022-09-09T17:35:34.853Z,23.70
2022-09-09T17:38:02.117Z,23.67
2022-09-09T17:40:29.456Z,23.65
2022-09-09T17:42:58.152Z,23.58
2022-09-09T17:45:26.241Z,23.58
2022-09-09T17:47:55.387Z,23.59
2022-09-09T17:50:22.496Z,23.59
2022-09-09T17:52:49.659Z,23.51
2022-09-09T17:55:18.236Z,23.47
2022-09-09T17:57:45.420Z,23.45
2022-09-09T18:00:12.891Z,23.41
2022-09-09T18:02:40.104Z,23.38
2022-09-09T18:05:07.466Z,23.38
2022-09-09T18:07:34.679Z,23.34
2022-09-09T18:10:02.485Z,23.38
2022-09-09T18:12:29.930Z,23.23
2022-09-09T18:14:59.976Z,23.20
2022-09-09T18:17:30.643Z,23.21
2022-09-09T18:19:58.109Z,23.16
2022-09-09T18:22:25.791Z,23.17
2022-09-09T18:24:52.977Z,23.15
2022-09-09T18:27:20.491Z,23.19
2022-09-09T18:29:48.216Z,23.02
2022-09-09T18:32:16.952Z,22.91
2022-09-09T18:34:44.299Z,22.98
2022-09-09T18:37:11.407Z,22.95
2022-09-09T18:39:38.778Z,22.91
2022-09-09T18:42:06.259Z,22.85
2022-09-09T18:44:34.617Z,22.93
2022-09-09T18:47:01.961Z,22.94
2022-09-09T18:49:29.251Z,22.96
2022-09-09T18:51:57.043Z,23.03
2022-09-09T18:54:26.412Z,23.01
2022-09-09T18:56:53.591Z,23.03
2022-09-09T18:59:21.468Z,22.87
2022-09-09T19:01:50.569Z,22.80
2022-09-09T19:04:19.128Z,22.77
2022-09-09T19:06:48.188Z,22.75
2022-09-09T19:09:18.598Z,22.87
2022-09-09T19:11:46.261Z,22.90
2022-09-09T19:14:15.321Z,22.85
2022-09-09T19:16:44.460Z,22.77
2022-09-09T19:19:13.278Z,22.74
2022-09-09T19:21:41.054Z,22.95
2022-09-09T19:24:11.637Z,23.03
2022-09-09T19:26:44.087Z,23.12
2022-09-09T19:29:15.774Z,23.09
2022-09-09T19:31:59.526Z,22.98
2022-09-09T19:34:31.303Z,22.94
2022-09-09T19:36:58.582Z,22.64
2022-09-09T19:39:26.608Z,22.65
2022-09-09T19:41:53.907Z,22.75
2022-09-09T19:44:21.038Z,22.83
2022-09-09T19:46:48.174Z,22.82
2022-09-09T19:49:18.426Z,22.83
2022-09-09T19:51:46.906Z,22.85
2022-09-09T19:54:14.148Z,22.78
2022-09-09T19:56:41.951Z,22.79
2022-09-09T19:59:10.758Z,22.76
2022-09-09T20:01:40.463Z,22.68
2022-09-09T20:04:08.065Z,22.63
2022-09-09T20:06:37.056Z,22.73
2022-09-09T20:09:06.016Z,22.61
2022-09-09T20:11:33.932Z,22.55
2022-09-09T20:14:01.738Z,22.47
2022-09-09T20:16:30.459Z,22.25
2022-09-09T20:18:59.522Z,22.30
2022-09-09T20:21:28.547Z,22.27
2022-09-09T20:23:56.040Z,22.23
2022-09-09T20:26:26.190Z,22.24
2022-09-09T20:28:53.870Z,22.21
2022-09-09T20:31:22.333Z,22.20
2022-09-09T20:33:50.116Z,22.29
2022-09-09T20:36:17.243Z,22.35
2022-09-09T20:38:46.559Z,22.49
2022-09-09T20:41:15.038Z,22.58
2022-09-09T20:43:46.878Z,22.67
2022-09-09T20:46:14.103Z,22.65
2022-09-09T20:48:42.238Z,22.73
2022-09-09T20:51:10.651Z,22.61
2022-09-09T20:53:37.985Z,22.53
2022-09-09T20:56:05.673Z,22.44
2022-09-09T20:58:33.671Z,22.26
2022-09-09T21:01:01.209Z,22.09
2022-09-09T21:03:32.260Z,22.05
2022-09-09T21:06:00.368Z,22.04
2022-09-09T21:08:28.357Z,22.03
2022-09-09T21:10:55.908Z,21.94
2022-09-09T21:13:24.053Z,22.03
2022-09-09T21:15:51.615Z,22.02
2022-09-09T21:18:19.274Z,22.13
2022-09-09T21:20:47.079Z,22.14
2022-09-09T21:23:15.635Z,22.14
2022-09-09T21:25:43.055Z,22.15
2022-09-09T21:28:10.801Z,22.02
2022-09-09T21:30:44.076Z,21.18
2022-09-09T21:33:11.525Z,20.36
2022-09-09T21:35:39.995Z,19.96
2022-09-09T21:38:08.458Z,19.68
2022-09-09T21:40:38.740Z,19.66
2022-09-09T21:43:06.179Z,19.58
2022-09-09T21:45:37.375Z,19.68
2022-09-09T21:48:05.497Z,19.69
2022-09-09T21:50:43.293Z,19.58
2022-09-09T21:53:11.268Z,19.59
2022-09-09T21:55:40.970Z,19.60
2022-09-09T21:58:08.986Z,19.63
2022-09-09T22:00:36.635Z,19.62
2022-09-09T22:03:03.967Z,19.78
2022-09-09T22:05:31.580Z,19.70
2022-09-09T22:07:58.793Z,19.57
2022-09-09T22:10:29.235Z,19.52
2022-09-09T22:12:56.402Z,19.46
2022-09-09T22:15:23.696Z,19.43
2022-09-09T22:17:51.007Z,19.56
2022-09-09T22:20:18.197Z,19.68
2022-09-09T22:22:45.403Z,19.80
2022-09-09T22:25:12.621Z,19.87
2022-09-09T22:27:40.202Z,19.88
2022-09-09T22:30:07.740Z,19.90
2022-09-09T22:32:35.209Z,19.90
2022-09-09T22:35:02.812Z,19.83
2022-09-09T22:37:30.133Z,19.92
2022-09-09T22:39:57.509Z,19.98
2022-09-09T22:42:24.652Z,19.95
2022-09-09T22:44:51.801Z,20.01
2022-09-09T22:47:19.121Z,20.06
2022-09-09T22:49:46.505Z,20.13
2022-09-09T22:52:13.648Z,20.14
2022-09-09T22:54:41.744Z,20.06
2022-09-09T22:57:09.554Z,20.12
2022-09-09T22:59:36.748Z,19.97
2022-09-09T23:02:03.919Z,19.92
2022-09-09T23:04:31.165Z,19.95
2022-09-09T23:06:59.140Z,20.04
2022-09-09T23:09:26.361Z,20.08
2022-09-09T23:11:53.942Z,20.04
2022-09-09T23:14:21.742Z,20.07
2022-09-09T23:16:49.002Z,20.12
2022-09-09T23:19:16.657Z,20.17
2022-09-09T23:21:45.220Z,20.19
2022-09-09T23:24:13.996Z,20.28
2022-09-09T23:26:43.427Z,20.33
2022-09-09T23:29:14.335Z,20.26
2022-09-09T23:31:42.730Z,20.16
2022-09-09T23:34:10.373Z,19.99
2022-09-09T23:36:37.823Z,19.94
2022-09-09T23:39:06.328Z,19.80
2022-09-09T23:41:34.064Z,19.85
2022-09-09T23:44:02.447Z,19.98
2022-09-09T23:46:30.510Z,20.14
2022-09-09T23:48:58.564Z,20.22
2022-09-09T23:51:28.922Z,20.15
2022-09-09T23:53:57.748Z,19.95
2022-09-09T23:56:26.929Z,19.94
2022-09-09T23:58:54.561Z,19.97
